Time;durP1;ratioP1;P1;durP2;ratioP2;P2;SDS_P1;SDS_P2;PMS_P1;PMS_P2;Temp;Humidity;BMP_temperature;BMP_pressure;BME280_temperature;BME280_humidity;BME280_pressure;Samples;Min_cycle;Max_cycle;Signal;HPM_P1;HPM_P2
2021/01/22 00:00:02;;;;;;;4.18;2.63;;;4.60;99.90;;;;;;4861733;29;20133;-77
2021/01/22 00:02:28;;;;;;;4.30;2.97;;;4.60;99.90;;;;;;4859837;29;20025;-77
2021/01/22 00:04:53;;;;;;;5.05;3.22;;;4.70;99.90;;;;;;4860464;29;20089;-78
2021/01/22 00:07:19;;;;;;;3.92;2.63;;;4.60;99.90;;;;;;4862203;29;20398;-78
2021/01/22 00:09:44;;;;;;;3.15;2.85;;;4.60;99.90;;;;;;4862557;29;20030;-78
2021/01/22 00:12:10;;;;;;;6.15;3.08;;;4.50;99.90;;;;;;4862275;29;20487;-77
2021/01/22 00:14:36;;;;;;;4.20;3.55;;;4.50;99.90;;;;;;4862817;29;20037;-78
2021/01/22 00:17:01;;;;;;;5.57;4.15;;;4.50;99.90;;;;;;4862090;29;20093;-78
2021/01/22 00:19:27;;;;;;;4.70;3.30;;;4.50;99.90;;;;;;4861763;29;20391;-77
2021/01/22 00:21:53;;;;;;;9.52;3.50;;;4.60;99.90;;;;;;4850487;29;20064;-78
2021/01/22 00:24:18;;;;;;;3.20;2.78;;;4.60;99.90;;;;;;4862345;29;20034;-78
2021/01/22 00:26:44;;;;;;;3.03;2.50;;;4.60;99.90;;;;;;4861256;29;20116;-78
2021/01/22 00:29:09;;;;;;;3.92;2.80;;;4.50;99.90;;;;;;4861767;29;20028;-78
2021/01/22 00:31:35;;;;;;;6.47;2.75;;;4.60;99.90;;;;;;4862446;29;20120;-78
2021/01/22 00:34:01;;;;;;;2.92;2.30;;;4.50;99.90;;;;;;4863998;29;20398;-77
2021/01/22 00:36:26;;;;;;;5.15;2.65;;;4.60;99.90;;;;;;4862114;29;20061;-77
2021/01/22 00:38:52;;;;;;;6.55;2.80;;;4.70;99.90;;;;;;4869350;29;20022;-77
2021/01/22 00:41:18;;;;;;;7.40;2.30;;;4.70;99.90;;;;;;4861508;29;20113;-77
2021/01/22 00:43:43;;;;;;;4.60;1.85;;;4.70;99.90;;;;;;4842880;29;20145;-76
2021/01/22 00:46:10;;;;;;;5.13;2.33;;;4.80;99.90;;;;;;4861800;29;20403;-77
2021/01/22 00:48:36;;;;;;;2.70;2.10;;;4.90;99.90;;;;;;4861072;29;20052;-76
2021/01/22 00:51:02;;;;;;;7.00;2.20;;;4.90;99.90;;;;;;4861719;29;20045;-78
2021/01/22 00:53:28;;;;;;;3.90;1.98;;;4.90;99.90;;;;;;4861700;29;20041;-77
2021/01/22 00:55:53;;;;;;;5.85;2.20;;;4.90;99.90;;;;;;4862104;29;20033;-77
2021/01/22 00:58:19;;;;;;;4.82;2.50;;;4.90;99.90;;;;;;4861157;29;20041;-76
2021/01/22 01:00:44;;;;;;;4.47;2.33;;;4.80;99.90;;;;;;4860011;29;20049;-77
2021/01/22 01:03:10;;;;;;;3.35;2.15;;;4.90;99.90;;;;;;4861604;29;20391;-77
2021/01/22 01:05:36;;;;;;;2.40;1.90;;;4.90;99.90;;;;;;4861508;29;20116;-78
2021/01/22 01:08:01;;;;;;;3.03;2.40;;;5.00;99.90;;;;;;4860848;29;20477;-77
2021/01/22 01:10:27;;;;;;;3.47;2.25;;;4.90;99.90;;;;;;4859677;29;20511;-78
2021/01/22 01:12:53;;;;;;;9.90;2.33;;;4.90;99.90;;;;;;4860783;29;20033;-78
2021/01/22 01:15:18;;;;;;;3.50;2.28;;;4.90;99.90;;;;;;4861437;29;20029;-77
2021/01/22 01:17:44;;;;;;;3.00;2.00;;;4.90;99.90;;;;;;4860751;29;20025;-77
2021/01/22 01:20:11;;;;;;;5.75;2.58;;;5.00;99.90;;;;;;4861514;29;20049;-77
2021/01/22 01:22:37;;;;;;;3.35;2.05;;;5.00;99.90;;;;;;4850292;29;20030;-77
2021/01/22 01:25:05;;;;;;;11.05;3.83;;;5.00;99.90;;;;;;4857333;29;20026;-77
2021/01/22 01:27:30;;;;;;;4.10;2.63;;;5.00;99.90;;;;;;4857444;29;20078;-77
2021/01/22 01:29:56;;;;;;;4.43;2.88;;;5.00;99.90;;;;;;4844923;29;20116;-76
2021/01/22 01:32:22;;;;;;;5.22;3.78;;;5.00;99.90;;;;;;4857596;29;20044;-76
2021/01/22 01:34:48;;;;;;;4.40;3.00;;;5.00;99.90;;;;;;4860949;29;20427;-77
2021/01/22 01:37:13;;;;;;;4.72;3.55;;;5.10;99.90;;;;;;4844044;29;20036;-76
2021/01/22 01:39:39;;;;;;;15.82;3.63;;;5.10;99.90;;;;;;4859169;29;20028;-76
2021/01/22 01:42:05;;;;;;;4.60;2.90;;;5.00;99.90;;;;;;4860605;29;20547;-76
2021/01/22 01:44:30;;;;;;;3.72;3.30;;;5.00;99.90;;;;;;4859846;29;20025;-76
2021/01/22 01:46:57;;;;;;;6.20;3.28;;;5.10;99.90;;;;;;4859508;29;20138;-76
2021/01/22 01:49:23;;;;;;;3.90;3.10;;;5.10;99.90;;;;;;4860424;29;20495;-75
2021/01/22 01:51:49;;;;;;;6.22;3.10;;;5.10;99.90;;;;;;4859519;29;20072;-76
2021/01/22 01:54:15;;;;;;;5.45;3.58;;;5.10;99.90;;;;;;4860102;29;20073;-76
2021/01/22 01:56:41;;;;;;;6.60;3.65;;;5.10;99.90;;;;;;4860018;29;20036;-75
2021/01/22 01:59:07;;;;;;;7.03;4.25;;;5.20;99.90;;;;;;4861367;29;20399;-75
2021/01/22 02:01:35;;;;;;;7.25;3.70;;;5.20;99.90;;;;;;4860797;29;20018;-76
2021/01/22 02:04:01;;;;;;;7.38;4.40;;;5.20;99.90;;;;;;4860228;29;20081;-75
2021/01/22 02:06:27;;;;;;;8.63;4.03;;;5.20;99.90;;;;;;4860283;29;20100;-76
2021/01/22 02:08:53;;;;;;;9.27;5.10;;;5.20;99.90;;;;;;4859640;29;20053;-76
2021/01/22 02:11:19;;;;;;;9.85;5.55;;;5.20;99.90;;;;;;4859624;29;20090;-76
2021/01/22 02:13:46;;;;;;;8.00;4.80;;;5.20;99.90;;;;;;4863432;29;20475;-76
2021/01/22 02:16:12;;;;;;;7.83;5.07;;;5.20;99.90;;;;;;4860133;29;20046;-76
2021/01/22 02:18:40;;;;;;;8.70;4.95;;;5.20;99.90;;;;;;4858869;29;20281;-76
2021/01/22 02:21:30;;;;;;;5.03;4.43;;;5.20;99.90;;;;;;4847397;29;20029;-76
2021/01/22 02:24:05;;;;;;;6.45;3.97;;;5.20;99.90;;;;;;4857913;29;20854;-76
2021/01/22 02:26:30;;;;;;;7.32;3.83;;;5.20;99.90;;;;;;4858135;29;20034;-76
2021/01/22 02:29:02;;;;;;;4.25;3.20;;;5.20;99.90;;;;;;4859924;29;20069;-76
2021/01/22 02:31:30;;;;;;;7.00;3.53;;;5.10;99.90;;;;;;4860514;29;20474;-76
2021/01/22 02:34:03;;;;;;;7.03;4.10;;;5.10;99.90;;;;;;4859700;29;20412;-76
2021/01/22 02:36:33;;;;;;;4.63;3.20;;;5.10;99.90;;;;;;4860387;29;20033;-76
2021/01/22 02:39:02;;;;;;;4.18;2.42;;;5.10;99.90;;;;;;4842580;29;20025;-76
2021/01/22 02:41:30;;;;;;;3.25;2.15;;;5.00;99.90;;;;;;4859992;29;20105;-75
2021/01/22 02:43:57;;;;;;;4.18;1.73;;;5.00;99.90;;;;;;4860233;29;20085;-77
2021/01/22 02:46:23;;;;;;;2.45;1.50;;;5.10;99.90;;;;;;4860356;29;20029;-78
2021/01/22 02:48:50;;;;;;;3.30;1.40;;;5.10;99.90;;;;;;4843268;29;20057;-77
2021/01/22 02:51:16;;;;;;;2.65;0.60;;;5.00;99.90;;;;;;4855943;29;20038;-76
2021/01/22 02:53:42;;;;;;;2.33;0.88;;;5.00;99.90;;;;;;4859794;29;20038;-77
2021/01/22 02:56:17;;;;;;;6.97;0.80;;;4.90;99.90;;;;;;4856084;29;20086;-76
2021/01/22 02:59:33;;;;;;;1.63;0.55;;;4.80;99.90;;;;;;4848148;29;20050;-76
2021/01/22 03:02:15;;;;;;;1.02;0.60;;;4.70;99.90;;;;;;4843565;29;20033;-77
2021/01/22 03:04:41;;;;;;;1.42;1.33;;;4.60;99.90;;;;;;4843958;29;20132;-78
2021/01/22 03:07:11;;;;;;;2.28;0.40;;;4.60;99.90;;;;;;4858818;29;20526;-76
2021/01/22 03:09:42;;;;;;;3.08;0.40;;;4.60;99.90;;;;;;4860067;29;20036;-77
2021/01/22 03:12:08;;;;;;;2.55;0.30;;;4.50;99.90;;;;;;4859976;29;20435;-77
2021/01/22 03:14:34;;;;;;;1.52;0.40;;;4.50;99.90;;;;;;4858681;29;20032;-77
2021/01/22 03:17:00;;;;;;;0.22;0.22;;;4.40;99.90;;;;;;4860119;29;20037;-76
2021/01/22 03:19:26;;;;;;;1.35;0.38;;;4.40;99.90;;;;;;4859638;29;20034;-77
2021/01/22 03:21:51;;;;;;;2.38;0.63;;;4.40;99.90;;;;;;4859893;29;20486;-77
2021/01/22 03:24:17;;;;;;;1.77;0.50;;;4.50;99.90;;;;;;4858105;29;20026;-77
2021/01/22 03:26:43;;;;;;;1.42;0.40;;;4.40;99.90;;;;;;4860090;29;20506;-77
2021/01/22 03:29:08;;;;;;;0.88;0.30;;;4.30;99.90;;;;;;4854892;29;20116;-77
2021/01/22 03:31:34;;;;;;;1.40;0.45;;;4.30;99.90;;;;;;4859395;29;20071;-77
2021/01/22 03:34:00;;;;;;;2.15;0.32;;;4.30;99.90;;;;;;4857951;29;20037;-77
2021/01/22 03:36:25;;;;;;;2.30;0.30;;;4.30;99.90;;;;;;4845442;29;20029;-76
2021/01/22 03:38:51;;;;;;;3.10;0.60;;;4.30;99.90;;;;;;4845583;29;20296;-76
2021/01/22 03:41:16;;;;;;;3.60;1.40;;;4.20;99.90;;;;;;4862042;29;20041;-77
2021/01/22 03:43:42;;;;;;;0.57;0.20;;;4.20;99.90;;;;;;4862723;29;20032;-76
2021/01/22 03:46:08;;;;;;;4.40;0.63;;;4.20;99.90;;;;;;4838934;29;20069;-77
2021/01/22 03:48:33;;;;;;;4.00;0.43;;;4.20;99.90;;;;;;4838478;29;20139;-76
2021/01/22 03:50:59;;;;;;;3.67;0.40;;;4.20;99.90;;;;;;4861808;29;20097;-77
2021/01/22 03:53:25;;;;;;;1.63;0.30;;;4.20;99.90;;;;;;4862288;29;20037;-77
2021/01/22 03:55:50;;;;;;;7.75;0.43;;;4.20;99.90;;;;;;4862426;29;20045;-76
2021/01/22 03:58:16;;;;;;;3.50;0.50;;;4.20;99.90;;;;;;4861591;29;20110;-76
2021/01/22 04:00:43;;;;;;;1.23;0.30;;;4.20;99.90;;;;;;4862463;29;20033;-76
2021/01/22 04:03:08;;;;;;;4.10;0.55;;;4.20;99.90;;;;;;4862965;29;20033;-76
2021/01/22 04:05:34;;;;;;;7.78;0.75;;;4.20;99.90;;;;;;4845914;29;20038;-77
2021/01/22 04:08:00;;;;;;;1.15;0.30;;;4.20;99.90;;;;;;4861077;29;20045;-76
2021/01/22 04:10:25;;;;;;;2.25;0.60;;;4.20;99.90;;;;;;4861706;29;20042;-77
2021/01/22 04:12:51;;;;;;;0.55;0.50;;;4.20;99.90;;;;;;4862808;29;20086;-76
2021/01/22 04:15:17;;;;;;;6.47;0.80;;;4.20;99.90;;;;;;4861353;29;20495;-77
2021/01/22 04:17:42;;;;;;;2.63;0.88;;;4.20;99.90;;;;;;4861300;29;20057;-77
2021/01/22 04:20:08;;;;;;;18.13;2.45;;;4.20;99.90;;;;;;4862286;29;20430;-77
2021/01/22 04:22:34;;;;;;;3.20;1.10;;;4.20;99.90;;;;;;4861510;29;20042;-77
2021/01/22 04:25:01;;;;;;;7.30;2.10;;;4.20;99.90;;;;;;4862899;29;20025;-76
2021/01/22 04:27:27;;;;;;;4.05;2.05;;;4.20;99.90;;;;;;4861939;29;20113;-76
2021/01/22 04:29:52;;;;;;;6.63;2.63;;;4.20;99.90;;;;;;4862726;29;20053;-76
2021/01/22 04:32:18;;;;;;;7.75;3.03;;;4.20;99.90;;;;;;4862012;29;20037;-76
2021/01/22 04:34:43;;;;;;;4.72;3.00;;;4.10;99.90;;;;;;4861823;29;20063;-76
2021/01/22 04:37:09;;;;;;;11.82;3.33;;;4.20;99.90;;;;;;4860430;29;20030;-76
2021/01/22 04:39:37;;;;;;;9.05;3.25;;;4.20;99.90;;;;;;4861135;29;20214;-76
2021/01/22 04:42:03;;;;;;;6.75;3.47;;;4.20;99.90;;;;;;4844885;29;20474;-76
2021/01/22 04:44:29;;;;;;;6.43;3.65;;;4.10;99.90;;;;;;4860646;29;20033;-77
2021/01/22 04:46:55;;;;;;;4.35;3.20;;;4.10;99.90;;;;;;4860996;29;20042;-75
2021/01/22 04:49:21;;;;;;;6.93;3.70;;;4.10;99.90;;;;;;4860246;29;20503;-76
2021/01/22 04:51:50;;;;;;;9.80;3.67;;;4.00;99.90;;;;;;4860637;29;20029;-76
2021/01/22 04:54:27;;;;;;;7.70;3.47;;;4.10;99.90;;;;;;4861481;29;20497;-76
2021/01/22 04:56:56;;;;;;;7.50;3.28;;;4.10;99.90;;;;;;4859730;29;20030;-75
2021/01/22 04:59:29;;;;;;;24.70;4.90;;;4.10;99.90;;;;;;4861862;29;20590;-76
2021/01/22 05:01:55;;;;;;;8.77;3.63;;;4.10;99.90;;;;;;4861384;29;20033;-76
2021/01/22 05:04:23;;;;;;;4.72;3.08;;;4.10;99.90;;;;;;4860487;29;20075;-76
2021/01/22 05:06:50;;;;;;;3.72;2.67;;;4.10;99.90;;;;;;4840098;29;20118;-76
2021/01/22 05:09:16;;;;;;;4.40;2.45;;;4.10;99.90;;;;;;4847619;29;20025;-76
2021/01/22 05:11:41;;;;;;;5.88;2.60;;;4.10;99.90;;;;;;4858944;29;20033;-76
2021/01/22 05:14:07;;;;;;;11.00;2.78;;;4.10;99.90;;;;;;4860449;29;20028;-76
2021/01/22 05:16:33;;;;;;;9.63;3.28;;;4.20;99.90;;;;;;4860936;29;20093;-76
2021/01/22 05:19:18;;;;;;;6.90;3.50;;;4.20;99.90;;;;;;4861622;29;20101;-76
2021/01/22 05:21:43;;;;;;;12.50;3.03;;;4.20;99.90;;;;;;4854896;29;20113;-77
2021/01/22 05:24:22;;;;;;;10.35;4.32;;;4.20;99.90;;;;;;4859911;29;20072;-77
2021/01/22 05:26:58;;;;;;;11.35;4.70;;;4.30;99.90;;;;;;4860695;29;20388;-77
2021/01/22 05:29:23;;;;;;;7.75;3.45;;;4.30;99.90;;;;;;4860211;29;20033;-77
2021/01/22 05:31:49;;;;;;;12.07;3.97;;;4.30;99.90;;;;;;4854854;29;20085;-77
2021/01/22 05:34:14;;;;;;;8.82;3.70;;;4.20;99.90;;;;;;4859580;29;20033;-76
2021/01/22 05:36:40;;;;;;;12.18;4.50;;;4.20;99.90;;;;;;4860967;29;20076;-76
2021/01/22 05:39:06;;;;;;;11.40;4.57;;;4.10;99.90;;;;;;4861199;29;20025;-76
2021/01/22 05:41:31;;;;;;;15.25;5.80;;;4.10;99.90;;;;;;4857768;29;20117;-77
2021/01/22 05:43:57;;;;;;;10.70;4.75;;;4.00;99.90;;;;;;4859511;29;20034;-76
2021/01/22 05:46:27;;;;;;;13.27;4.97;;;4.10;99.90;;;;;;4859846;29;20056;-77
2021/01/22 05:49:12;;;;;;;17.05;5.75;;;4.10;99.90;;;;;;4844082;29;20113;-76
2021/01/22 05:51:38;;;;;;;11.07;5.35;;;4.10;99.90;;;;;;4860564;29;20029;-76
2021/01/22 05:54:04;;;;;;;12.75;6.32;;;4.10;99.90;;;;;;4860647;29;20088;-76
2021/01/22 05:56:30;;;;;;;11.77;5.78;;;4.10;99.90;;;;;;4859813;29;20112;-76
2021/01/22 05:58:56;;;;;;;16.52;5.93;;;4.10;99.90;;;;;;4858845;29;20529;-77
2021/01/22 06:01:25;;;;;;;12.77;6.32;;;4.00;99.90;;;;;;4860015;29;20036;-76
2021/01/22 06:03:53;;;;;;;26.33;7.35;;;4.10;99.90;;;;;;4860457;29;20077;-76
2021/01/22 06:06:19;;;;;;;13.83;7.07;;;4.00;99.90;;;;;;4859437;29;20038;-76
2021/01/22 06:08:54;;;;;;;10.63;6.22;;;4.00;99.90;;;;;;4858432;29;20286;-77
2021/01/22 06:11:27;;;;;;;14.50;8.13;;;4.00;99.90;;;;;;4860223;29;20041;-76
2021/01/22 06:13:55;;;;;;;23.05;7.25;;;4.00;99.90;;;;;;4859242;29;20496;-76
2021/01/22 06:16:22;;;;;;;15.35;7.15;;;3.90;99.90;;;;;;4860053;29;20117;-77
2021/01/22 06:18:52;;;;;;;14.15;7.15;;;3.90;99.90;;;;;;4855796;29;20381;-76
2021/01/22 06:21:24;;;;;;;16.85;6.82;;;4.00;99.90;;;;;;4859949;29;20116;-77
2021/01/22 06:23:51;;;;;;;16.52;7.40;;;4.10;99.90;;;;;;4859778;29;20025;-76
2021/01/22 06:26:19;;;;;;;20.00;6.90;;;4.10;99.90;;;;;;4858455;29;20033;-76
2021/01/22 06:28:46;;;;;;;15.50;6.90;;;4.10;99.90;;;;;;4857477;29;20151;-77
2021/01/22 06:31:12;;;;;;;14.55;6.47;;;4.10;99.90;;;;;;4858794;29;20041;-76
2021/01/22 06:33:40;;;;;;;28.13;7.57;;;4.10;99.90;;;;;;4855323;29;20578;-76
2021/01/22 06:36:09;;;;;;;11.40;5.32;;;4.00;99.90;;;;;;4858972;29;20360;-77
2021/01/22 06:38:36;;;;;;;20.63;6.72;;;4.00;99.90;;;;;;4859904;29;20025;-77
2021/01/22 06:41:02;;;;;;;23.25;6.25;;;4.00;99.90;;;;;;4844810;29;20064;-77
2021/01/22 06:43:28;;;;;;;22.33;7.15;;;4.00;99.90;;;;;;4858789;29;20069;-77
2021/01/22 06:46:03;;;;;;;14.05;5.85;;;4.00;99.90;;;;;;4841617;29;20022;-77
2021/01/22 06:48:49;;;;;;;16.75;6.03;;;3.90;99.90;;;;;;4844093;29;20034;-77
2021/01/22 06:51:16;;;;;;;15.65;6.20;;;3.90;99.90;;;;;;4858868;29;20036;-78
2021/01/22 06:54:15;;;;;;;13.80;6.28;;;3.90;99.90;;;;;;4860644;29;20485;-78
2021/01/22 06:56:46;;;;;;;20.45;6.88;;;3.90;99.90;;;;;;4848808;29;20391;-78
2021/01/22 06:59:22;;;;;;;15.10;6.45;;;3.90;99.90;;;;;;4860447;29;20495;-77
2021/01/22 07:01:52;;;;;;;16.80;6.65;;;3.90;99.90;;;;;;4853813;29;20018;-76
2021/01/22 07:04:32;;;;;;;8.57;6.07;;;3.90;99.90;;;;;;4859550;29;20089;-76
2021/01/22 07:07:03;;;;;;;15.60;6.00;;;3.90;99.90;;;;;;4857682;29;20030;-75
2021/01/22 07:09:45;;;;;;;16.83;6.68;;;3.90;99.90;;;;;;4859386;29;20036;-76
2021/01/22 07:12:15;;;;;;;11.68;6.70;;;3.90;99.90;;;;;;4861310;29;20067;-76
2021/01/22 07:14:50;;;;;;;20.60;7.05;;;3.90;99.90;;;;;;4859904;29;20041;-76
2021/01/22 07:17:29;;;;;;;14.80;6.40;;;3.80;99.90;;;;;;4861183;29;20021;-78
2021/01/22 07:20:02;;;;;;;18.27;6.75;;;3.80;99.90;;;;;;4859739;29;20048;-79
2021/01/22 07:22:30;;;;;;;17.35;6.20;;;3.80;99.90;;;;;;4863981;29;20061;-78
2021/01/22 07:24:57;;;;;;;14.90;6.75;;;3.80;99.90;;;;;;4863342;29;20029;-76
2021/01/22 07:27:37;;;;;;;15.95;6.85;;;3.90;99.90;;;;;;4861094;29;20538;-76
2021/01/22 07:30:16;;;;;;;15.05;5.47;;;3.90;99.90;;;;;;4859987;29;20029;-79
2021/01/22 07:32:43;;;;;;;16.83;6.82;;;3.90;99.90;;;;;;4859504;29;20033;-75
2021/01/22 07:35:23;;;;;;;15.33;6.80;;;3.90;99.90;;;;;;4860322;29;20339;-77
2021/01/22 07:37:50;;;;;;;13.50;6.90;;;3.90;99.90;;;;;;4862875;29;20779;-76
2021/01/22 07:40:16;;;;;;;21.17;7.00;;;3.80;99.90;;;;;;4863157;29;20021;-76
2021/01/22 07:42:43;;;;;;;13.60;6.47;;;3.80;99.90;;;;;;4860996;29;20025;-75
2021/01/22 07:45:14;;;;;;;13.15;6.28;;;3.90;99.90;;;;;;4861439;29;20033;-78
2021/01/22 07:47:42;;;;;;;12.30;6.45;;;3.90;99.90;;;;;;4858010;29;20029;-74
2021/01/22 07:50:21;;;;;;;11.25;5.93;;;3.90;99.90;;;;;;4845022;29;20437;-76
2021/01/22 07:52:49;;;;;;;15.15;5.90;;;4.00;99.90;;;;;;4860938;29;20045;-76
2021/01/22 07:55:15;;;;;;;17.37;5.40;;;4.00;99.90;;;;;;4861409;29;20037;-75
2021/01/22 07:57:42;;;;;;;16.67;5.53;;;4.00;99.90;;;;;;4861134;29;20298;-75
2021/01/22 08:00:10;;;;;;;14.95;6.40;;;4.00;99.90;;;;;;4840503;29;20468;-75
2021/01/22 08:02:36;;;;;;;14.68;5.15;;;4.00;99.90;;;;;;4858070;29;20022;-75
2021/01/22 08:05:04;;;;;;;14.38;6.32;;;4.00;99.90;;;;;;4843968;29;20038;-74
2021/01/22 08:07:47;;;;;;;16.27;6.35;;;3.90;99.90;;;;;;4836414;29;20459;-73
2021/01/22 08:10:13;;;;;;;13.32;4.32;;;4.00;99.90;;;;;;4846160;29;20042;-75
2021/01/22 08:12:54;;;;;;;13.07;4.47;;;3.90;99.90;;;;;;4829285;29;20516;-75
2021/01/22 08:15:20;;;;;;;10.82;4.78;;;3.90;99.90;;;;;;4840246;29;20030;-75
2021/01/22 08:17:48;;;;;;;16.33;4.80;;;3.90;99.90;;;;;;4841667;29;20037;-76
2021/01/22 08:20:14;;;;;;;14.07;3.85;;;3.90;99.90;;;;;;4843783;29;20109;-75
2021/01/22 08:22:41;;;;;;;11.95;3.97;;;3.90;99.90;;;;;;4843878;29;20030;-75
2021/01/22 08:25:07;;;;;;;20.23;3.75;;;4.00;99.90;;;;;;4843728;29;20116;-76
2021/01/22 08:27:33;;;;;;;14.80;4.60;;;3.90;99.90;;;;;;4843472;29;20448;-76
2021/01/22 08:30:00;;;;;;;13.57;3.72;;;3.90;99.90;;;;;;4845261;29;20121;-75
2021/01/22 08:32:27;;;;;;;11.27;4.20;;;3.90;99.90;;;;;;4826054;29;20042;-76
2021/01/22 08:34:53;;;;;;;9.57;4.18;;;4.00;99.90;;;;;;4841287;29;20061;-75
2021/01/22 08:37:20;;;;;;;10.35;4.50;;;4.00;99.90;;;;;;4842533;29;20069;-75
2021/01/22 08:39:59;;;;;;;4.40;2.40;;;4.10;99.90;;;;;;4839193;29;20030;-81
2021/01/22 08:42:30;;;;;;;10.23;3.47;;;4.10;99.90;;;;;;4831388;29;20309;-82
2021/01/22 08:45:01;;;;;;;17.70;4.38;;;4.10;99.90;;;;;;4836940;29;20455;-79
2021/01/22 08:47:29;;;;;;;7.07;3.00;;;4.10;99.90;;;;;;4837820;29;20053;-76
2021/01/22 08:49:58;;;;;;;7.90;3.55;;;4.10;99.90;;;;;;4843227;29;20507;-76
2021/01/22 08:52:25;;;;;;;6.00;2.92;;;4.10;99.90;;;;;;4836997;29;20022;-76
2021/01/22 08:54:56;;;;;;;20.38;5.25;;;4.20;99.90;;;;;;4837862;29;20038;-80
2021/01/22 08:57:24;;;;;;;12.10;3.53;;;4.20;99.90;;;;;;4846954;29;20042;-81
2021/01/22 08:59:56;;;;;;;8.10;3.65;;;4.20;99.90;;;;;;4857210;29;20053;-80
2021/01/22 09:02:42;;;;;;;14.30;4.18;;;4.20;99.90;;;;;;4848406;29;20030;-79
2021/01/22 09:05:13;;;;;;;11.30;4.20;;;4.20;99.90;;;;;;4843444;29;20612;-80
2021/01/22 09:07:40;;;;;;;14.73;4.30;;;4.20;99.90;;;;;;4857561;29;20136;-80
2021/01/22 09:10:27;;;;;;;11.30;4.40;;;4.20;99.90;;;;;;4843266;29;20046;-80
2021/01/22 09:12:52;;;;;;;12.00;4.50;;;4.20;99.90;;;;;;4822912;29;20034;-80
2021/01/22 09:15:18;;;;;;;12.48;4.57;;;4.20;99.90;;;;;;4824405;29;20089;-80
2021/01/22 09:17:52;;;;;;;14.75;4.18;;;4.30;99.90;;;;;;4841150;29;20539;-80
2021/01/22 09:20:23;;;;;;;6.25;4.80;;;4.20;99.90;;;;;;4842337;29;20049;-80
2021/01/22 09:22:50;;;;;;;8.30;4.10;;;4.30;99.90;;;;;;4857189;29;20117;-80
2021/01/22 09:25:18;;;;;;;15.45;4.28;;;4.30;99.90;;;;;;4843358;29;20026;-80
2021/01/22 09:27:45;;;;;;;21.30;5.22;;;4.40;99.90;;;;;;4841809;29;20383;-79
2021/01/22 09:30:13;;;;;;;7.85;2.90;;;4.40;99.90;;;;;;4856414;29;20061;-79
2021/01/22 09:32:44;;;;;;;10.18;4.13;;;4.40;99.90;;;;;;4844037;29;20034;-79
2021/01/22 09:35:10;;;;;;;9.95;4.47;;;4.50;99.90;;;;;;4843366;29;20216;-79
2021/01/22 09:37:35;;;;;;;19.08;4.85;;;4.40;99.90;;;;;;4842506;29;20037;-80
2021/01/22 09:40:02;;;;;;;11.18;4.50;;;4.50;99.90;;;;;;4843527;29;20022;-80
2021/01/22 09:42:28;;;;;;;11.55;5.30;;;4.50;99.90;;;;;;4855802;29;20108;-80
2021/01/22 09:44:54;;;;;;;13.20;4.28;;;4.40;99.90;;;;;;4842740;29;20050;-80
2021/01/22 09:47:19;;;;;;;14.82;4.85;;;4.50;99.90;;;;;;4842997;29;20395;-81
2021/01/22 09:49:46;;;;;;;14.02;4.55;;;4.50;99.90;;;;;;4857755;29;20110;-81
2021/01/22 09:52:12;;;;;;;12.05;4.80;;;4.60;99.90;;;;;;4830567;29;20488;-80
2021/01/22 09:54:37;;;;;;;11.13;4.82;;;4.70;99.90;;;;;;4841673;29;20102;-81
2021/01/22 09:57:03;;;;;;;13.30;4.07;;;4.80;99.90;;;;;;4834613;29;20038;-80
2021/01/22 09:59:28;;;;;;;10.65;4.60;;;4.90;99.90;;;;;;4855900;29;20072;-79
2021/01/22 10:01:54;;;;;;;11.63;4.22;;;5.00;99.90;;;;;;4842412;29;20124;-81
2021/01/22 10:04:20;;;;;;;15.13;4.68;;;5.10;99.90;;;;;;4836961;29;20029;-81
2021/01/22 10:06:45;;;;;;;12.07;4.32;;;5.00;99.90;;;;;;4842741;29;20093;-81
2021/01/22 10:09:11;;;;;;;9.50;4.53;;;5.10;99.90;;;;;;4841829;29;20065;-79
2021/01/22 10:11:38;;;;;;;9.60;3.50;;;5.10;99.90;;;;;;4853858;29;20034;-81
2021/01/22 10:14:04;;;;;;;14.27;4.20;;;5.10;99.90;;;;;;4843113;29;20116;-80
2021/01/22 10:16:30;;;;;;;12.25;4.65;;;5.20;99.90;;;;;;4841162;29;20112;-80
2021/01/22 10:18:56;;;;;;;19.38;5.20;;;5.20;99.90;;;;;;4842343;29;20069;-80
2021/01/22 10:21:22;;;;;;;12.13;3.47;;;5.30;99.90;;;;;;4826627;29;20046;-81
2021/01/22 10:23:49;;;;;;;12.18;3.83;;;5.40;99.90;;;;;;4855208;29;20511;-82
2021/01/22 10:26:17;;;;;;;17.97;4.97;;;5.40;99.90;;;;;;4856833;29;20046;-81
2021/01/22 10:28:43;;;;;;;11.38;3.97;;;5.50;99.90;;;;;;4842654;29;20503;-81
2021/01/22 10:31:10;;;;;;;16.52;4.63;;;5.60;99.90;;;;;;4856486;29;20522;-83
2021/01/22 10:33:36;;;;;;;12.10;4.70;;;5.60;99.90;;;;;;4842093;29;20089;-84
2021/01/22 10:36:02;;;;;;;12.50;4.53;;;5.60;99.90;;;;;;4842690;29;20042;-81
2021/01/22 10:38:28;;;;;;;14.05;4.28;;;5.70;99.90;;;;;;4841654;29;20030;-80
2021/01/22 10:40:55;;;;;;;10.48;4.28;;;5.70;99.90;;;;;;4843251;29;20029;-80
2021/01/22 10:43:22;;;;;;;7.55;3.97;;;5.90;99.90;;;;;;4842185;29;20053;-81
2021/01/22 10:45:48;;;;;;;17.87;4.27;;;5.90;99.90;;;;;;4861697;29;20507;-81
2021/01/22 10:48:14;;;;;;;15.30;4.20;;;5.90;99.90;;;;;;4833595;29;20048;-81
2021/01/22 10:50:39;;;;;;;10.93;3.47;;;6.00;99.90;;;;;;4861966;29;20026;-80
2021/01/22 10:53:05;;;;;;;9.50;3.38;;;6.00;99.90;;;;;;4849154;29;20483;-81
2021/01/22 10:55:31;;;;;;;22.98;3.92;;;6.00;99.90;;;;;;4848522;29;20037;-81
2021/01/22 10:57:56;;;;;;;8.35;2.88;;;6.10;99.90;;;;;;4851186;29;20045;-83
2021/01/22 11:00:22;;;;;;;16.98;3.33;;;6.20;99.90;;;;;;4848365;29;20403;-82
2021/01/22 11:02:48;;;;;;;9.93;2.92;;;6.30;99.90;;;;;;4862299;29;20090;-81
2021/01/22 11:05:14;;;;;;;14.65;3.50;;;6.40;99.90;;;;;;4848310;29;20055;-81
2021/01/22 11:07:39;;;;;;;9.50;2.85;;;6.40;99.90;;;;;;4848502;29;20029;-81
2021/01/22 11:10:06;;;;;;;11.60;3.17;;;6.30;99.90;;;;;;4852112;29;20044;-81
2021/01/22 11:12:31;;;;;;;14.57;3.50;;;6.40;99.90;;;;;;4859842;29;20064;-80
2021/01/22 11:14:57;;;;;;;14.95;2.60;;;6.50;99.90;;;;;;4848344;29;20048;-81
2021/01/22 11:17:22;;;;;;;9.85;2.90;;;6.50;99.90;;;;;;4861812;29;20037;-81
2021/01/22 11:19:48;;;;;;;20.17;3.33;;;6.60;99.90;;;;;;4845772;29;20038;-81
2021/01/22 11:22:14;;;;;;;11.93;3.13;;;6.70;99.90;;;;;;4831556;29;20488;-81
2021/01/22 11:24:39;;;;;;;12.68;2.78;;;6.80;99.90;;;;;;4847229;29;20030;-81
2021/01/22 11:27:05;;;;;;;26.60;8.35;;;6.80;99.90;;;;;;4848753;29;20041;-81
2021/01/22 11:29:31;;;;;;;13.48;2.72;;;6.70;99.90;;;;;;4848779;29;20046;-81
2021/01/22 11:31:56;;;;;;;12.05;2.13;;;6.80;99.90;;;;;;4832015;29;20137;-80
2021/01/22 11:34:22;;;;;;;8.45;2.55;;;6.70;99.90;;;;;;4848812;29;20070;-81
2021/01/22 11:36:48;;;;;;;11.52;2.20;;;6.70;99.90;;;;;;4847337;29;20040;-81
2021/01/22 11:39:13;;;;;;;11.60;2.75;;;6.70;99.90;;;;;;4848082;29;20067;-81
2021/01/22 11:41:39;;;;;;;8.50;2.38;;;6.70;99.90;;;;;;4862033;29;20140;-81
2021/01/22 11:44:05;;;;;;;7.10;2.38;;;6.70;99.90;;;;;;4860626;29;20028;-80
2021/01/22 11:46:32;;;;;;;12.15;3.15;;;6.60;99.90;;;;;;4846735;29;20033;-81
2021/01/22 11:48:59;;;;;;;4.97;1.73;;;6.60;99.90;;;;;;4862571;29;20041;-80
2021/01/22 11:51:24;;;;;;;9.63;2.20;;;6.70;99.90;;;;;;4847954;29;20041;-80
2021/01/22 11:53:50;;;;;;;10.55;2.33;;;6.70;99.90;;;;;;4862107;29;20033;-80
2021/01/22 11:56:16;;;;;;;11.52;3.17;;;6.70;99.90;;;;;;4847378;29;20034;-81
2021/01/22 11:58:41;;;;;;;12.52;2.45;;;6.80;99.90;;;;;;4845612;29;20137;-81
2021/01/22 12:01:07;;;;;;;8.45;2.45;;;6.80;99.90;;;;;;4859737;29;20475;-80
2021/01/22 12:03:32;;;;;;;9.00;2.25;;;6.80;99.90;;;;;;4846867;29;20025;-82
2021/01/22 12:05:58;;;;;;;8.10;2.35;;;6.80;99.90;;;;;;4844304;29;20539;-83
2021/01/22 12:08:38;;;;;;;11.88;2.15;;;6.90;99.90;;;;;;4843143;29;20075;-82
2021/01/22 12:11:04;;;;;;;8.00;2.13;;;7.00;99.90;;;;;;4857999;29;20084;-81
2021/01/22 12:13:30;;;;;;;8.65;2.10;;;7.20;99.90;;;;;;4827811;29;20034;-81
2021/01/22 12:15:55;;;;;;;11.63;2.42;;;7.20;99.90;;;;;;4854395;29;20054;-81
2021/01/22 12:18:21;;;;;;;15.00;2.65;;;7.20;99.90;;;;;;4846406;29;20487;-81
2021/01/22 12:20:47;;;;;;;14.38;2.40;;;7.20;99.90;;;;;;4858608;29;20018;-81
2021/01/22 12:23:12;;;;;;;15.43;3.08;;;7.20;99.90;;;;;;4838270;29;20047;-82
2021/01/22 12:25:40;;;;;;;8.07;2.65;;;7.10;99.90;;;;;;4827447;29;20031;-81
2021/01/22 12:28:06;;;;;;;7.43;2.05;;;7.00;99.90;;;;;;4858963;29;20097;-83
2021/01/22 12:30:32;;;;;;;10.27;2.28;;;7.00;99.90;;;;;;4858172;29;20139;-81
2021/01/22 12:32:57;;;;;;;8.15;2.58;;;6.90;99.90;;;;;;4844877;29;20096;-82
2021/01/22 12:35:23;;;;;;;14.68;2.70;;;6.80;99.90;;;;;;4829328;29;20034;-82
2021/01/22 12:37:49;;;;;;;14.88;2.72;;;6.90;99.90;;;;;;4825846;29;20408;-81
2021/01/22 12:40:15;;;;;;;11.73;2.40;;;6.90;99.90;;;;;;4858687;29;20030;-81
2021/01/22 12:42:41;;;;;;;11.85;2.40;;;7.00;99.90;;;;;;4858240;29;20593;-82
2021/01/22 12:45:07;;;;;;;8.88;2.40;;;7.00;99.90;;;;;;4859744;29;20052;-81
2021/01/22 12:47:33;;;;;;;6.85;2.15;;;7.10;99.90;;;;;;4858839;29;20030;-81
2021/01/22 12:49:59;;;;;;;12.38;2.25;;;7.10;99.90;;;;;;4843789;29;20480;-81
2021/01/22 12:52:24;;;;;;;7.72;2.17;;;7.20;99.90;;;;;;4843530;29;20078;-81
2021/01/22 12:54:50;;;;;;;8.07;2.05;;;7.20;99.90;;;;;;4844321;29;20046;-82